Time;durP1;ratioP1;P1;durP2;ratioP2;P2;SDS_P1;SDS_P2;PMS_P1;PMS_P2;Temp;Humidity;BMP_temperature;BMP_pressure;BME280_temperature;BME280_humidity;BME280_pressure;Samples;Min_cycle;Max_cycle;Signal;HPM_P1;HPM_P2
2023/06/13 00:01:56;;;;;;;1.88;1.23;;;24.50;37.20;;;;;;5062472;28;20049;-63
2023/06/13 00:04:23;;;;;;;1.08;1.00;;;24.40;37.30;;;;;;5044649;28;20054;-63
2023/06/13 00:06:54;;;;;;;0.85;0.80;;;24.40;37.40;;;;;;5046478;28;20040;-63
2023/06/13 00:09:22;;;;;;;0.98;0.82;;;24.40;37.50;;;;;;5050185;28;20028;-63
2023/06/13 00:11:50;;;;;;;2.13;1.20;;;24.30;37.60;;;;;;5069061;28;20033;-63
2023/06/13 00:14:23;;;;;;;1.42;1.10;;;24.30;37.70;;;;;;5047545;28;20119;-63
2023/06/13 00:17:11;;;;;;;1.67;1.00;;;24.30;37.70;;;;;;5068865;28;20043;-66
2023/06/13 00:19:36;;;;;;;1.48;0.93;;;24.20;37.80;;;;;;5065277;28;20098;-65
2023/06/13 00:22:02;;;;;;;1.50;1.02;;;24.20;38.00;;;;;;5064559;28;20054;-63
2023/06/13 00:24:28;;;;;;;1.45;1.35;;;24.20;38.10;;;;;;5065350;28;20051;-63
2023/06/13 00:26:54;;;;;;;0.90;0.90;;;24.10;38.00;;;;;;5067003;28;20020;-63
2023/06/13 00:29:19;;;;;;;0.90;0.70;;;24.00;38.00;;;;;;5064895;28;20630;-63
2023/06/13 00:31:48;;;;;;;1.33;0.95;;;24.00;38.20;;;;;;5062579;28;20032;-63
2023/06/13 00:34:13;;;;;;;1.48;1.10;;;24.00;38.40;;;;;;5069383;28;20036;-63
2023/06/13 00:36:43;;;;;;;0.93;0.93;;;23.90;38.40;;;;;;5067467;28;20032;-63
2023/06/13 00:39:12;;;;;;;1.20;1.02;;;23.90;38.50;;;;;;5049857;28;20040;-63
2023/06/13 00:41:38;;;;;;;1.98;1.33;;;23.80;38.60;;;;;;5059211;28;21404;-63
2023/06/13 00:44:05;;;;;;;1.88;1.55;;;23.80;38.70;;;;;;5067381;28;20025;-65
2023/06/13 00:46:35;;;;;;;3.83;1.10;;;23.80;38.80;;;;;;5065391;28;20377;-63
2023/06/13 00:49:02;;;;;;;1.00;1.00;;;23.70;39.00;;;;;;5063607;28;20040;-63
2023/06/13 00:51:55;;;;;;;1.73;1.17;;;23.70;39.00;;;;;;5049479;28;20031;-63
2023/06/13 00:54:23;;;;;;;1.55;0.75;;;23.60;39.20;;;;;;5069776;28;20047;-63
2023/06/13 00:56:49;;;;;;;2.58;1.20;;;23.60;39.30;;;;;;5062833;28;20039;-62
2023/06/13 00:59:15;;;;;;;1.05;0.90;;;23.60;39.40;;;;;;5066340;28;20024;-62
2023/06/13 01:01:42;;;;;;;1.90;1.00;;;23.50;39.50;;;;;;5062395;28;20367;-62
2023/06/13 01:04:07;;;;;;;2.08;1.02;;;23.50;39.70;;;;;;5047238;28;20031;-62
2023/06/13 01:06:38;;;;;;;0.80;0.70;;;23.40;39.70;;;;;;5058926;28;20028;-62
2023/06/13 01:09:06;;;;;;;1.35;0.90;;;23.40;40.00;;;;;;5060785;28;20209;-62
2023/06/13 01:11:54;;;;;;;0.73;0.73;;;23.40;40.10;;;;;;5067879;28;20502;-62
2023/06/13 01:14:30;;;;;;;1.17;0.88;;;23.30;40.50;;;;;;5059173;28;20490;-62
2023/06/13 01:17:04;;;;;;;1.08;0.90;;;23.20;40.70;;;;;;5066120;28;20020;-62
2023/06/13 01:19:40;;;;;;;1.42;0.82;;;23.10;40.80;;;;;;5058160;28;20060;-62
2023/06/13 01:22:15;;;;;;;1.67;0.90;;;23.00;41.10;;;;;;5064033;28;20778;-62
2023/06/13 01:24:56;;;;;;;1.52;0.85;;;23.00;41.20;;;;;;5070129;28;20107;-62
2023/06/13 01:27:23;;;;;;;1.02;0.93;;;23.00;41.20;;;;;;5065665;28;20044;-64
2023/06/13 01:29:54;;;;;;;1.30;1.10;;;22.90;41.40;;;;;;5068314;28;20502;-66
2023/06/13 01:32:22;;;;;;;1.02;0.93;;;22.90;41.50;;;;;;5066729;28;20033;-61
2023/06/13 01:34:49;;;;;;;2.33;1.17;;;22.80;41.50;;;;;;5069278;28;20032;-61
2023/06/13 01:37:16;;;;;;;2.15;1.20;;;22.70;41.60;;;;;;5061314;28;20590;-63
2023/06/13 01:39:41;;;;;;;1.35;0.98;;;22.70;41.70;;;;;;5066827;28;20032;-63
2023/06/13 01:42:07;;;;;;;1.10;0.70;;;22.60;41.60;;;;;;5066426;28;20020;-62
2023/06/13 01:44:33;;;;;;;3.25;1.08;;;22.60;41.50;;;;;;5067595;28;20025;-62
2023/06/13 01:47:19;;;;;;;1.05;0.95;;;22.70;41.60;;;;;;5055090;28;20029;-62
2023/06/13 01:50:01;;;;;;;0.90;0.77;;;22.60;41.60;;;;;;5064770;28;20391;-62
2023/06/13 01:52:52;;;;;;;2.00;1.20;;;22.50;41.90;;;;;;5069518;28;20097;-64
2023/06/13 01:55:26;;;;;;;1.27;1.10;;;22.60;42.10;;;;;;5065136;28;20029;-62
2023/06/13 01:58:02;;;;;;;1.45;0.90;;;22.40;42.10;;;;;;5067228;28;20029;-62
2023/06/13 02:00:28;;;;;;;2.25;0.98;;;22.40;42.70;;;;;;5048060;28;20031;-63
2023/06/13 02:02:57;;;;;;;1.52;0.90;;;22.40;42.10;;;;;;5045826;28;20020;-63
2023/06/13 02:05:26;;;;;;;1.63;1.10;;;22.40;42.30;;;;;;5062033;28;20028;-62
2023/06/13 02:07:53;;;;;;;1.60;1.02;;;22.30;42.30;;;;;;5066690;28;20025;-62
2023/06/13 02:10:19;;;;;;;1.20;0.98;;;22.30;42.40;;;;;;5062234;28;20033;-62
2023/06/13 02:12:44;;;;;;;1.20;0.93;;;22.30;43.10;;;;;;5061163;28;20033;-62
2023/06/13 02:15:13;;;;;;;1.60;1.15;;;22.30;42.50;;;;;;5049524;28;20033;-62
2023/06/13 02:17:39;;;;;;;1.65;1.05;;;22.20;42.60;;;;;;5071337;28;20028;-64
2023/06/13 02:20:06;;;;;;;1.40;0.98;;;22.20;42.70;;;;;;5046178;28;20511;-65
2023/06/13 02:22:32;;;;;;;1.20;0.90;;;22.10;43.00;;;;;;5052516;28;20441;-65
2023/06/13 02:24:59;;;;;;;1.42;1.13;;;22.10;43.10;;;;;;5069925;28;20023;-65
2023/06/13 02:27:25;;;;;;;2.17;1.50;;;22.00;43.10;;;;;;5050114;28;20520;-64
2023/06/13 02:29:54;;;;;;;1.33;1.10;;;22.00;43.30;;;;;;5053180;28;20075;-65
2023/06/13 02:32:22;;;;;;;1.50;0.98;;;22.00;43.40;;;;;;5060261;28;20043;-65
2023/06/13 02:34:49;;;;;;;5.10;1.00;;;21.90;43.40;;;;;;5060715;28;20052;-63
2023/06/13 02:37:15;;;;;;;2.22;1.60;;;21.90;43.40;;;;;;5068363;28;20097;-63
2023/06/13 02:39:43;;;;;;;2.75;1.60;;;21.90;43.50;;;;;;5046838;28;20041;-63
2023/06/13 02:42:09;;;;;;;2.45;1.40;;;21.80;43.50;;;;;;5051597;28;20028;-65
2023/06/13 02:44:34;;;;;;;1.50;1.10;;;21.80;43.70;;;;;;5061907;28;20029;-65
2023/06/13 02:47:00;;;;;;;0.90;0.80;;;21.70;43.90;;;;;;5053175;28;20037;-62
2023/06/13 02:49:26;;;;;;;1.58;0.98;;;21.70;43.90;;;;;;5049435;28;20056;-63
2023/06/13 02:51:52;;;;;;;1.20;1.10;;;21.70;44.10;;;;;;5062938;28;20047;-63
2023/06/13 02:54:18;;;;;;;2.10;1.33;;;21.60;44.20;;;;;;5045710;28;20049;-66
2023/06/13 02:56:43;;;;;;;1.85;1.17;;;21.60;44.40;;;;;;5063672;28;20047;-64
2023/06/13 02:59:09;;;;;;;3.60;1.30;;;21.50;44.50;;;;;;5046985;28;20434;-65
2023/06/13 03:01:35;;;;;;;1.55;1.23;;;21.50;44.80;;;;;;5059794;28;20040;-65
2023/06/13 03:04:00;;;;;;;1.35;1.00;;;21.50;44.90;;;;;;5060471;28;20145;-64
2023/06/13 03:06:26;;;;;;;2.25;0.90;;;21.40;44.90;;;;;;5070293;28;20396;-63
2023/06/13 03:08:52;;;;;;;1.50;1.02;;;21.40;44.90;;;;;;5042318;28;20049;-63
2023/06/13 03:11:18;;;;;;;1.42;1.10;;;21.30;44.80;;;;;;5044231;28;20083;-63
2023/06/13 03:13:45;;;;;;;0.98;0.90;;;21.40;44.80;;;;;;5035409;28;20119;-65
2023/06/13 03:16:11;;;;;;;1.15;0.90;;;21.30;44.70;;;;;;5062457;28;20159;-63
2023/06/13 03:18:37;;;;;;;0.98;0.82;;;21.30;44.80;;;;;;5059543;28;20384;-63
2023/06/13 03:21:03;;;;;;;1.15;1.02;;;21.30;44.80;;;;;;5059481;28;20029;-63
2023/06/13 03:23:30;;;;;;;1.30;1.17;;;21.30;45.00;;;;;;5044181;28;20386;-63
2023/06/13 03:25:55;;;;;;;1.05;1.00;;;21.20;44.90;;;;;;5059657;28;20448;-63
2023/06/13 03:28:22;;;;;;;0.80;0.80;;;21.20;45.00;;;;;;5066809;28;20028;-63
2023/06/13 03:30:48;;;;;;;1.08;0.93;;;21.20;45.00;;;;;;5059718;28;20025;-63
2023/06/13 03:33:14;;;;;;;1.52;1.42;;;21.10;45.30;;;;;;5068908;28;20085;-63
2023/06/13 03:36:00;;;;;;;1.45;1.10;;;21.10;45.40;;;;;;5063577;28;20032;-63
2023/06/13 03:38:27;;;;;;;2.70;1.48;;;21.00;45.30;;;;;;5067407;28;20437;-63
2023/06/13 03:40:53;;;;;;;1.42;1.33;;;21.00;45.40;;;;;;5060046;28;20025;-63
2023/06/13 03:43:18;;;;;;;2.33;1.50;;;21.00;45.50;;;;;;5047008;28;20051;-63
2023/06/13 03:45:45;;;;;;;1.25;1.10;;;21.00;45.50;;;;;;5044865;28;20029;-63
2023/06/13 03:48:11;;;;;;;2.45;1.27;;;21.00;45.40;;;;;;5068055;28;20017;-63
2023/06/13 03:50:37;;;;;;;1.40;1.15;;;21.00;45.20;;;;;;5062141;28;20040;-63
2023/06/13 03:53:07;;;;;;;1.67;1.40;;;21.00;45.10;;;;;;5062538;28;20546;-64
2023/06/13 03:55:33;;;;;;;2.25;0.90;;;21.00;45.10;;;;;;5061328;28;20124;-64
2023/06/13 03:58:00;;;;;;;1.40;1.10;;;21.00;45.00;;;;;;5065423;28;20052;-65
2023/06/13 04:00:25;;;;;;;1.10;1.00;;;21.10;44.90;;;;;;5040622;28;20037;-66
2023/06/13 04:02:52;;;;;;;1.55;1.30;;;21.10;44.80;;;;;;5061405;28;20048;-66
2023/06/13 04:05:18;;;;;;;1.95;0.98;;;21.10;44.70;;;;;;5069497;28;20105;-65
2023/06/13 04:07:45;;;;;;;1.45;1.20;;;21.20;44.60;;;;;;5066394;28;20029;-64
2023/06/13 04:10:11;;;;;;;1.58;1.15;;;21.20;44.60;;;;;;5065221;28;20056;-65
2023/06/13 04:12:37;;;;;;;1.42;1.10;;;21.20;44.40;;;;;;5033037;28;20082;-65
2023/06/13 04:15:04;;;;;;;1.98;1.40;;;21.20;44.40;;;;;;5054293;28;20025;-65
2023/06/13 04:17:32;;;;;;;1.65;1.10;;;21.30;44.40;;;;;;5064139;28;20391;-64
2023/06/13 04:19:57;;;;;;;1.80;1.13;;;21.30;44.30;;;;;;5027686;28;20025;-64
2023/06/13 04:22:25;;;;;;;1.52;0.95;;;21.40;44.20;;;;;;5066985;28;20021;-62
2023/06/13 04:24:51;;;;;;;1.80;1.40;;;21.40;44.20;;;;;;5063718;28;20027;-62
2023/06/13 04:27:19;;;;;;;1.67;1.08;;;21.40;44.10;;;;;;5065369;28;20112;-62
2023/06/13 04:29:47;;;;;;;1.23;0.80;;;21.50;44.00;;;;;;5061955;28;20380;-62
2023/06/13 04:32:17;;;;;;;0.77;0.60;;;21.50;43.90;;;;;;5063452;28;20032;-63
2023/06/13 04:34:52;;;;;;;1.70;1.17;;;21.60;44.10;;;;;;5062847;28;20090;-63
2023/06/13 04:37:23;;;;;;;1.63;1.17;;;21.60;44.10;;;;;;5059978;28;20480;-64
2023/06/13 04:39:51;;;;;;;1.80;1.20;;;21.60;44.00;;;;;;5046547;28;20056;-64
2023/06/13 04:42:24;;;;;;;1.27;0.95;;;21.70;44.00;;;;;;5044593;28;20283;-64
2023/06/13 04:44:53;;;;;;;1.27;1.13;;;21.70;43.80;;;;;;5063642;28;20016;-64
2023/06/13 04:47:20;;;;;;;2.20;1.27;;;21.80;43.80;;;;;;5060105;28;20392;-64
2023/06/13 04:49:46;;;;;;;2.63;1.20;;;21.80;43.80;;;;;;5062446;28;20037;-64
2023/06/13 04:52:14;;;;;;;1.17;0.85;;;21.90;43.80;;;;;;5063605;28;20051;-65
2023/06/13 04:54:40;;;;;;;1.50;1.23;;;22.00;43.80;;;;;;5049376;28;20036;-64
2023/06/13 04:57:06;;;;;;;0.98;0.98;;;22.00;43.70;;;;;;5066794;28;20480;-65
2023/06/13 04:59:32;;;;;;;1.92;1.00;;;22.10;43.60;;;;;;5060072;28;20053;-64
2023/06/13 05:01:57;;;;;;;1.05;0.88;;;22.10;43.40;;;;;;5042451;28;20048;-64
2023/06/13 05:04:23;;;;;;;1.15;1.02;;;22.20;43.40;;;;;;5043779;28;20022;-63
2023/06/13 05:06:49;;;;;;;1.48;1.10;;;22.20;43.30;;;;;;5046452;28;20029;-64
2023/06/13 05:09:16;;;;;;;1.10;1.00;;;22.20;43.30;;;;;;5042737;28;20033;-64
2023/06/13 05:11:42;;;;;;;1.27;1.02;;;22.20;43.30;;;;;;5043157;28;20029;-62
2023/06/13 05:14:11;;;;;;;1.35;1.02;;;22.30;43.20;;;;;;5037402;28;20064;-63
2023/06/13 05:16:37;;;;;;;2.00;1.63;;;22.40;47.10;;;;;;5043776;28;20033;-63
2023/06/13 05:19:05;;;;;;;2.05;1.50;;;22.80;45.10;;;;;;5047527;28;20040;-63
2023/06/13 05:21:31;;;;;;;1.63;1.30;;;23.00;43.80;;;;;;5043249;28;20041;-62
2023/06/13 05:23:58;;;;;;;2.65;1.77;;;23.20;43.00;;;;;;5044390;28;20410;-64
2023/06/13 05:26:23;;;;;;;2.00;1.33;;;23.30;42.60;;;;;;5045184;28;20031;-64
2023/06/13 05:28:49;;;;;;;2.00;1.40;;;23.40;42.30;;;;;;5041388;28;20927;-63
2023/06/13 05:31:18;;;;;;;2.47;1.73;;;23.50;42.10;;;;;;5040596;28;20453;-64
2023/06/13 05:33:44;;;;;;;1.25;1.15;;;23.60;41.80;;;;;;5041950;28;20111;-65
2023/06/13 05:36:09;;;;;;;2.10;1.55;;;23.60;41.70;;;;;;5038853;28;20246;-64
2023/06/13 05:38:36;;;;;;;5.43;1.50;;;23.70;41.70;;;;;;5042974;28;20436;-64
2023/06/13 05:41:02;;;;;;;3.58;1.73;;;23.80;41.50;;;;;;5050412;28;20170;-62
2023/06/13 05:43:27;;;;;;;2.35;1.75;;;23.80;41.40;;;;;;5041113;28;20541;-63
2023/06/13 05:45:53;;;;;;;2.15;1.23;;;23.90;41.40;;;;;;5045654;28;20036;-62
2023/06/13 05:48:19;;;;;;;1.88;1.45;;;23.90;41.40;;;;;;5046577;28;20043;-62
2023/06/13 05:50:45;;;;;;;2.53;1.20;;;24.00;41.40;;;;;;5043747;28;20030;-62
2023/06/13 05:53:11;;;;;;;1.42;1.30;;;24.00;41.40;;;;;;5047774;28;20033;-62
2023/06/13 05:55:36;;;;;;;2.42;1.35;;;24.00;41.40;;;;;;5046201;28;20112;-62
2023/06/13 05:58:02;;;;;;;1.65;1.20;;;24.00;42.10;;;;;;5043241;28;20407;-62
2023/06/13 06:00:28;;;;;;;1.75;1.58;;;24.10;41.60;;;;;;5042052;28;20147;-62
2023/06/13 06:02:54;;;;;;;2.67;1.52;;;24.10;41.80;;;;;;5066522;28;20115;-62
2023/06/13 06:05:20;;;;;;;1.35;1.23;;;24.10;41.90;;;;;;5044112;28;20035;-62
2023/06/13 06:07:46;;;;;;;1.67;1.48;;;24.20;41.90;;;;;;5061166;28;20062;-62
2023/06/13 06:10:13;;;;;;;1.60;1.45;;;24.10;42.10;;;;;;5057941;28;20032;-63
2023/06/13 06:12:39;;;;;;;2.65;1.95;;;24.20;42.20;;;;;;5063129;28;20036;-63
2023/06/13 06:15:05;;;;;;;1.55;1.45;;;24.20;42.10;;;;;;5068746;28;20020;-64
2023/06/13 06:17:31;;;;;;;2.10;1.55;;;24.20;42.10;;;;;;5062157;28;20123;-62
2023/06/13 06:19:57;;;;;;;1.35;1.25;;;24.20;42.00;;;;;;5048913;28;20112;-62
2023/06/13 06:22:22;;;;;;;2.35;1.63;;;24.30;42.10;;;;;;5061187;28;20028;-62
2023/06/13 06:24:48;;;;;;;1.65;1.50;;;24.30;42.10;;;;;;5063566;28;20376;-62
2023/06/13 06:27:14;;;;;;;2.33;1.35;;;24.40;42.20;;;;;;5060940;28;20025;-63
2023/06/13 06:29:40;;;;;;;1.50;1.30;;;24.40;42.20;;;;;;5065325;28;20025;-63
2023/06/13 06:32:10;;;;;;;1.83;1.23;;;24.40;42.30;;;;;;5060446;28;20476;-62
2023/06/13 06:34:36;;;;;;;1.52;1.40;;;24.50;42.50;;;;;;5067241;28;20119;-62
2023/06/13 06:37:03;;;;;;;1.98;1.65;;;24.50;42.30;;;;;;5064717;28;20111;-62
2023/06/13 06:39:29;;;;;;;2.20;1.40;;;24.50;42.40;;;;;;5047551;28;20028;-62
2023/06/13 06:41:55;;;;;;;2.33;1.48;;;24.50;42.40;;;;;;5063775;28;20029;-62
2023/06/13 06:44:21;;;;;;;1.83;1.38;;;24.50;42.40;;;;;;5062809;28;20360;-64
2023/06/13 06:46:46;;;;;;;3.03;1.25;;;24.50;42.50;;;;;;5040214;28;20433;-64
2023/06/13 06:49:12;;;;;;;3.63;1.85;;;24.40;42.60;;;;;;5059537;28;20037;-64
2023/06/13 06:51:38;;;;;;;1.00;1.00;;;24.50;42.80;;;;;;5060951;28;20117;-62
2023/06/13 06:54:03;;;;;;;2.88;1.83;;;24.50;42.80;;;;;;5048963;28;20090;-63
2023/06/13 06:56:29;;;;;;;3.00;2.05;;;24.50;43.00;;;;;;5055178;28;20036;-62
2023/06/13 06:58:55;;;;;;;4.95;1.80;;;24.60;42.90;;;;;;5063505;28;20119;-62
2023/06/13 07:01:20;;;;;;;1.80;1.58;;;24.60;42.90;;;;;;5063018;28;20056;-62
2023/06/13 07:03:46;;;;;;;1.33;1.23;;;24.70;43.00;;;;;;5063812;28;20028;-62
2023/06/13 07:06:12;;;;;;;3.72;1.60;;;24.70;43.10;;;;;;5048191;28;20086;-62
2023/06/13 07:08:38;;;;;;;1.98;1.30;;;24.80;43.00;;;;;;5063498;28;20057;-64
2023/06/13 07:11:04;;;;;;;2.50;1.55;;;24.90;43.00;;;;;;5059330;28;20075;-62
2023/06/13 07:13:31;;;;;;;2.33;1.40;;;24.90;42.90;;;;;;5027495;28;20036;-64
2023/06/13 07:15:56;;;;;;;2.38;1.48;;;25.00;42.80;;;;;;5060080;28;20028;-64
2023/06/13 07:18:22;;;;;;;2.95;1.60;;;25.00;42.70;;;;;;5065855;28;20035;-63
2023/06/13 07:20:48;;;;;;;2.63;1.40;;;25.10;42.70;;;;;;5041442;28;20503;-62
2023/06/13 07:23:13;;;;;;;2.88;1.55;;;25.20;42.90;;;;;;5064867;28;20423;-62
2023/06/13 07:25:42;;;;;;;1.30;1.20;;;25.20;42.80;;;;;;5061900;28;20020;-62
2023/06/13 07:28:09;;;;;;;2.20;1.67;;;25.30;42.80;;;;;;5049412;28;20028;-62
2023/06/13 07:30:35;;;;;;;2.13;1.63;;;25.40;42.60;;;;;;5062898;28;20120;-62
2023/06/13 07:33:00;;;;;;;1.65;1.40;;;25.40;42.40;;;;;;5043613;28;20037;-64
2023/06/13 07:35:26;;;;;;;1.95;1.23;;;25.40;42.20;;;;;;5061490;28;20029;-63
2023/06/13 07:37:53;;;;;;;1.90;1.45;;;25.40;42.20;;;;;;5066347;28;20064;-62
2023/06/13 07:40:21;;;;;;;5.07;2.05;;;25.50;42.30;;;;;;5061673;28;20043;-63
2023/06/13 07:42:49;;;;;;;1.25;1.15;;;25.60;42.20;;;;;;5068281;28;20119;-62
2023/06/13 07:45:15;;;;;;;3.58;1.42;;;25.70;42.10;;;;;;5061247;28;20097;-64
2023/06/13 07:47:41;;;;;;;1.90;1.40;;;25.70;41.90;;;;;;5063690;28;20038;-63
2023/06/13 07:50:07;;;;;;;1.45;1.05;;;25.70;41.80;;;;;;5063273;28;20120;-64
2023/06/13 07:52:33;;;;;;;2.67;1.40;;;25.70;41.70;;;;;;5061650;28;20045;-64
2023/06/13 07:54:59;;;;;;;3.30;1.98;;;25.80;41.70;;;;;;5058706;28;20028;-64
2023/06/13 07:57:25;;;;;;;3.03;1.30;;;25.70;41.50;;;;;;5060690;28;20388;-64
2023/06/13 07:59:50;;;;;;;3.05;1.60;;;25.80;41.40;;;;;;5035848;28;20036;-64
2023/06/13 08:02:16;;;;;;;2.38;1.73;;;25.80;41.20;;;;;;5041016;28;20415;-63
2023/06/13 08:04:42;;;;;;;1.60;1.48;;;25.80;41.00;;;;;;5063492;28;20028;-62
2023/06/13 08:07:09;;;;;;;2.50;1.05;;;25.90;40.80;;;;;;5066707;28;20017;-62
2023/06/13 08:09:34;;;;;;;1.88;1.27;;;25.90;41.00;;;;;;5066456;28;20036;-63
2023/06/13 08:12:00;;;;;;;1.95;1.52;;;26.00;41.00;;;;;;5046875;28;20029;-63
2023/06/13 08:14:26;;;;;;;1.75;1.40;;;26.10;41.20;;;;;;5065605;28;20491;-62
2023/06/13 08:16:52;;;;;;;5.63;1.45;;;26.10;41.00;;;;;;5041737;28;20029;-63
2023/06/13 08:19:17;;;;;;;2.00;1.60;;;26.30;40.80;;;;;;5037388;28;20033;-62
2023/06/13 08:21:43;;;;;;;3.15;1.20;;;26.30;40.60;;;;;;5044683;28;20390;-63
2023/06/13 08:24:09;;;;;;;4.43;1.30;;;26.40;40.60;;;;;;5048110;28;20368;-62
2023/06/13 08:26:35;;;;;;;1.40;1.27;;;26.40;40.40;;;;;;5055098;28;20066;-63
2023/06/13 08:29:01;;;;;;;3.03;1.42;;;26.60;40.10;;;;;;5064066;28;20136;-62
2023/06/13 08:31:29;;;;;;;1.55;1.45;;;26.60;39.80;;;;;;5056679;28;20028;-64
2023/06/13 08:33:55;;;;;;;2.58;1.33;;;26.70;39.50;;;;;;5059404;28;20230;-64
2023/06/13 08:36:22;;;;;;;1.35;1.25;;;26.70;39.40;;;;;;5057295;28;20032;-64
2023/06/13 08:38:47;;;;;;;1.60;1.50;;;26.70;39.30;;;;;;5039723;28;20175;-63
2023/06/13 08:41:14;;;;;;;2.05;1.63;;;26.80;39.20;;;;;;5056355;28;20112;-64
2023/06/13 08:43:41;;;;;;;3.97;1.60;;;26.90;39.00;;;;;;5059040;28;20020;-64
2023/06/13 08:46:07;;;;;;;2.63;1.55;;;27.00;38.80;;;;;;5059489;28;20103;-63
2023/06/13 08:48:33;;;;;;;1.42;1.27;;;27.10;38.50;;;;;;5058229;28;20028;-64
2023/06/13 08:51:04;;;;;;;1.40;1.30;;;27.20;38.20;;;;;;5063610;28;20036;-64
2023/06/13 08:53:32;;;;;;;1.45;1.17;;;27.20;38.30;;;;;;5060410;28;20027;-64
2023/06/13 08:56:06;;;;;;;1.08;0.90;;;27.40;38.30;;;;;;5061129;28;20480;-64
2023/06/13 08:58:37;;;;;;;1.48;1.23;;;27.50;38.00;;;;;;5044536;28;20028;-65
2023/06/13 09:01:06;;;;;;;1.35;0.80;;;27.70;37.80;;;;;;5066365;28;20024;-65
2023/06/13 09:03:32;;;;;;;1.65;1.08;;;27.90;37.70;;;;;;5047430;28;20033;-65
2023/06/13 09:06:00;;;;;;;1.10;1.00;;;28.00;37.60;;;;;;5066222;28;20045;-65
2023/06/13 09:08:27;;;;;;;1.10;1.00;;;28.10;37.50;;;;;;5067337;28;20040;-65
2023/06/13 09:10:54;;;;;;;1.15;0.95;;;28.30;37.40;;;;;;5066761;28;20024;-65
2023/06/13 09:13:23;;;;;;;1.65;1.17;;;28.40;37.00;;;;;;5069528;28;20127;-65
2023/06/13 09:15:49;;;;;;;2.22;1.20;;;28.50;37.00;;;;;;5068596;28;20017;-63
2023/06/13 09:18:16;;;;;;;1.88;1.10;;;28.50;36.00;;;;;;5046552;28;20044;-63
2023/06/13 09:20:42;;;;;;;1.48;1.10;;;28.60;36.00;;;;;;5058637;28;20072;-64
2023/06/13 09:23:08;;;;;;;2.00;1.23;;;28.60;36.30;;;;;;5064625;28;20039;-63
2023/06/13 09:25:36;;;;;;;2.33;1.00;;;28.70;35.50;;;;;;5043796;28;20028;-63
2023/06/13 09:28:30;;;;;;;3.78;1.58;;;28.80;35.50;;;;;;5048122;28;20025;-63
2023/06/13 09:30:57;;;;;;;5.45;1.27;;;28.90;34.90;;;;;;5069382;28;20447;-63
2023/06/13 09:33:23;;;;;;;2.40;1.10;;;28.90;35.00;;;;;;5065600;28;20732;-63
2023/06/13 09:35:50;;;;;;;1.30;1.20;;;29.00;34.70;;;;;;5064113;28;20467;-63
2023/06/13 09:38:23;;;;;;;1.95;1.15;;;29.10;34.50;;;;;;5047189;28;20396;-63
2023/06/13 09:40:52;;;;;;;2.00;0.88;;;29.20;34.40;;;;;;5066221;28;20033;-63
2023/06/13 09:43:19;;;;;;;1.15;1.00;;;29.30;33.80;;;;;;5044397;28;20025;-63
2023/06/13 09:45:45;;;;;;;1.35;1.20;;;29.40;33.60;;;;;;5059677;28;20029;-63
2023/06/13 09:48:10;;;;;;;1.33;1.23;;;29.50;33.60;;;;;;5041024;28;20036;-63
2023/06/13 09:50:39;;;;;;;1.55;1.23;;;29.60;33.40;;;;;;5068711;28;20028;-63
2023/06/13 09:53:06;;;;;;;1.50;1.40;;;29.60;33.10;;;;;;5065479;28;20468;-63
2023/06/13 09:55:31;;;;;;;1.50;1.23;;;29.70;33.20;;;;;;5038834;28;20037;-63
2023/06/13 09:57:58;;;;;;;1.55;1.45;;;29.80;32.80;;;;;;5040204;28;20454;-63
2023/06/13 10:00:23;;;;;;;1.50;1.40;;;29.80;32.40;;;;;;5057947;28;20559;-63
2023/06/13 10:02:50;;;;;;;1.40;1.20;;;29.80;32.60;;;;;;5026747;28;20135;-63
2023/06/13 10:05:16;;;;;;;1.65;1.02;;;29.90;32.80;;;;;;5032488;28;20102;-63
2023/06/13 10:07:41;;;;;;;1.42;1.33;;;30.00;32.50;;;;;;5059540;28;20028;-63
2023/06/13 10:10:07;;;;;;;1.25;1.15;;;30.00;32.30;;;;;;5057903;28;20032;-63
2023/06/13 10:12:38;;;;;;;1.55;1.25;;;30.10;32.40;;;;;;5044352;28;20068;-63
2023/06/13 10:15:06;;;;;;;1.48;1.10;;;30.20;32.20;;;;;;5057073;28;20028;-63
2023/06/13 10:17:39;;;;;;;1.38;1.10;;;30.30;32.00;;;;;;5058511;28;20323;-63
2023/06/13 10:20:10;;;;;;;2.08;1.25;;;30.40;32.10;;;;;;5059542;28;20016;-63
2023/06/13 10:22:38;;;;;;;2.45;1.35;;;30.50;32.10;;;;;;5060881;28;20551;-63
2023/06/13 10:25:08;;;;;;;2.67;1.60;;;30.60;31.70;;;;;;5062029;28;20118;-63
2023/06/13 10:27:42;;;;;;;1.83;1.20;;;30.60;31.70;;;;;;5061405;28;20020;-63
2023/06/13 10:30:40;;;;;;;1.48;1.15;;;30.70;31.70;;;;;;5040702;28;20108;-63
2023/06/13 10:33:56;;;;;;;1.85;1.63;;;30.80;31.60;;;;;;5025597;28;20063;-62
2023/06/13 10:36:34;;;;;;;2.10;1.50;;;30.80;31.30;;;;;;5057805;28;20074;-62
2023/06/13 10:39:13;;;;;;;1.33;1.23;;;30.80;31.40;;;;;;5061000;28;20427;-65
2023/06/13 10:42:04;;;;;;;1.95;1.38;;;30.80;31.40;;;;;;5059340;28;20058;-65
2023/06/13 10:44:45;;;;;;;1.50;1.40;;;31.00;31.30;;;;;;5045784;28;20106;-65
2023/06/13 10:47:20;;;;;;;2.28;1.70;;;31.10;31.10;;;;;;5041756;28;20029;-65
2023/06/13 10:49:51;;;;;;;1.88;1.30;;;31.20;31.10;;;;;;5060935;28;20885;-65
2023/06/13 10:52:20;;;;;;;1.73;1.60;;;31.30;31.00;;;;;;5060535;28;20480;-62
2023/06/13 10:54:53;;;;;;;1.60;1.50;;;31.30;30.50;;;;;;5061472;28;20450;-63
2023/06/13 10:57:20;;;;;;;1.35;1.00;;;31.40;31.40;;;;;;5060156;28;20021;-63
2023/06/13 10:59:49;;;;;;;2.00;1.15;;;31.30;30.80;;;;;;5039031;28;20369;-63
2023/06/13 11:02:16;;;;;;;1.77;1.23;;;31.40;30.60;;;;;;5055583;28;20036;-65
2023/06/13 11:04:52;;;;;;;5.80;1.55;;;31.60;30.70;;;;;;5059893;28;20020;-64
2023/06/13 11:07:21;;;;;;;3.53;2.00;;;31.60;30.30;;;;;;5042541;28;20493;-65
2023/06/13 11:10:04;;;;;;;1.90;1.50;;;31.60;30.20;;;;;;5062217;28;20062;-65
2023/06/13 11:12:30;;;;;;;1.27;1.17;;;31.60;30.20;;;;;;5061059;28;20116;-64
2023/06/13 11:14:58;;;;;;;1.90;1.40;;;31.70;30.20;;;;;;5055932;28;20625;-64
2023/06/13 11:17:24;;;;;;;4.28;1.42;;;31.90;30.00;;;;;;5034154;28;20028;-64
2023/06/13 11:19:53;;;;;;;2.40;1.30;;;32.00;30.00;;;;;;5043118;28;20033;-64
2023/06/13 11:22:21;;;;;;;1.05;0.95;;;32.10;29.90;;;;;;5059671;28;20051;-63
2023/06/13 11:24:48;;;;;;;1.60;1.20;;;32.20;30.00;;;;;;5059204;28;20479;-63
2023/06/13 11:27:16;;;;;;;3.75;1.35;;;32.40;30.00;;;;;;5059044;28;20041;-63
2023/06/13 11:29:45;;;;;;;1.15;1.00;;;32.50;29.60;;;;;;5056869;28;20040;-63
2023/06/13 11:32:12;;;;;;;2.45;1.58;;;32.60;29.70;;;;;;5040415;28;20086;-63
2023/06/13 11:34:50;;;;;;;1.33;1.23;;;32.70;29.70;;;;;;5063290;28;20016;-63
2023/06/13 11:37:25;;;;;;;1.20;1.00;;;32.80;29.60;;;;;;5058823;28;20048;-63
2023/06/13 11:39:56;;;;;;;1.02;0.93;;;32.90;29.40;;;;;;5035151;28;20041;-63
2023/06/13 11:42:23;;;;;;;1.23;1.13;;;33.00;29.50;;;;;;5056773;28;20052;-63
2023/06/13 11:44:48;;;;;;;1.30;1.20;;;33.10;29.50;;;;;;5055050;28;20103;-63
2023/06/13 11:47:15;;;;;;;1.33;1.23;;;33.20;30.00;;;;;;5059132;28;20122;-63
2023/06/13 11:49:42;;;;;;;1.17;1.02;;;33.30;29.30;;;;;;5049647;28;20334;-63
2023/06/13 11:52:17;;;;;;;1.42;1.30;;;33.30;29.10;;;;;;5052956;28;20202;-65
2023/06/13 11:54:47;;;;;;;1.80;1.30;;;33.50;29.20;;;;;;5058541;28;20037;-65
2023/06/13 11:57:15;;;;;;;1.63;1.30;;;33.50;29.20;;;;;;5057056;28;20109;-65
2023/06/13 11:59:41;;;;;;;1.60;1.50;;;33.50;29.20;;;;;;5051942;28;20040;-65
2023/06/13 12:02:09;;;;;;;2.53;1.45;;;33.50;28.90;;;;;;5037907;28;20395;-65
2023/06/13 12:04:36;;;;;;;1.50;1.15;;;33.50;29.00;;;;;;5056655;28;20074;-65
2023/06/13 12:07:06;;;;;;;1.20;1.10;;;33.50;28.90;;;;;;5037795;28;20024;-64
2023/06/13 12:09:32;;;;;;;1.88;1.52;;;33.60;28.80;;;;;;5055473;28;20039;-65
2023/06/13 12:11:58;;;;;;;1.20;1.10;;;33.70;28.80;;;;;;5053214;28;20399;-65
2023/06/13 12:14:23;;;;;;;6.20;1.38;;;33.70;28.60;;;;;;5058564;28;20037;-65
2023/06/13 12:16:52;;;;;;;2.15;1.55;;;33.70;28.30;;;;;;5053006;28;20032;-65
2023/06/13 12:19:22;;;;;;;1.33;1.23;;;33.70;28.30;;;;;;5059013;28;20037;-65
2023/06/13 12:21:55;;;;;;;1.55;1.45;;;33.70;28.50;;;;;;5054735;28;20476;-65
2023/06/13 12:24:23;;;;;;;2.50;1.60;;;33.80;28.30;;;;;;5044497;28;20571;-64
2023/06/13 12:26:49;;;;;;;1.65;1.30;;;33.70;28.40;;;;;;5057498;28;20301;-64
2023/06/13 12:29:16;;;;;;;2.55;1.63;;;33.70;28.50;;;;;;5056567;28;20037;-64
2023/06/13 12:31:44;;;;;;;2.03;1.25;;;33.70;28.60;;;;;;5058443;28;20067;-67
2023/06/13 12:34:14;;;;;;;1.27;1.17;;;33.90;28.70;;;;;;5051582;28;20025;-65
2023/06/13 12:36:42;;;;;;;1.38;1.10;;;34.00;28.70;;;;;;5054936;28;20021;-63
2023/06/13 12:39:12;;;;;;;2.60;1.42;;;34.10;28.80;;;;;;5057901;28;20020;-62
2023/06/13 12:41:42;;;;;;;1.40;1.23;;;34.20;28.80;;;;;;5056818;28;20057;-63
2023/06/13 12:44:09;;;;;;;2.08;1.55;;;34.30;28.80;;;;;;5059527;28;20028;-62
2023/06/13 12:46:38;;;;;;;1.27;1.17;;;34.40;28.70;;;;;;5057726;28;20025;-63
2023/06/13 12:49:11;;;;;;;2.03;1.58;;;34.50;28.80;;;;;;5053140;28;20029;-63
2023/06/13 12:51:45;;;;;;;2.40;1.48;;;34.50;28.70;;;;;;5058495;28;20021;-64
2023/06/13 12:54:11;;;;;;;1.50;1.40;;;34.50;28.70;;;;;;5037350;28;20041;-63